Time;durP1;ratioP1;P1;durP2;ratioP2;P2;SDS_P1;SDS_P2;PMS_P1;PMS_P2;Temp;Humidity;BMP_temperature;BMP_pressure;BME280_temperature;BME280_humidity;BME280_pressure;Samples;Min_cycle;Max_cycle;Signal;HPM_P1;HPM_P2
2023/04/27 00:00:36;;;;;;;6.43;3.00;;;21.00;53.80;;;;;;5093757;28;20107;-72
2023/04/27 00:03:04;;;;;;;12.48;3.22;;;21.00;54.30;;;;;;5094021;28;20493;-72
2023/04/27 00:05:37;;;;;;;19.90;4.03;;;21.00;54.40;;;;;;5093961;28;20474;-72
2023/04/27 00:08:07;;;;;;;19.55;2.97;;;21.00;54.70;;;;;;5094136;28;20086;-72
2023/04/27 00:10:33;;;;;;;15.13;2.65;;;20.90;54.90;;;;;;5093332;28;20020;-72
2023/04/27 00:13:00;;;;;;;8.07;2.80;;;21.00;55.10;;;;;;5093210;28;20099;-72
2023/04/27 00:15:26;;;;;;;11.70;2.60;;;21.00;55.10;;;;;;5093965;28;20031;-72
2023/04/27 00:17:51;;;;;;;10.13;3.38;;;20.90;55.10;;;;;;5093785;28;20024;-72
2023/04/27 00:20:18;;;;;;;9.02;2.70;;;20.90;55.10;;;;;;5092444;28;20414;-72
2023/04/27 00:22:44;;;;;;;12.95;3.03;;;20.90;55.00;;;;;;5093673;28;20503;-72
2023/04/27 00:25:10;;;;;;;8.65;2.90;;;20.90;55.10;;;;;;5092521;28;20444;-72
2023/04/27 00:27:36;;;;;;;9.63;2.83;;;21.00;55.20;;;;;;5093645;28;20477;-72
2023/04/27 00:30:03;;;;;;;9.45;3.03;;;20.90;55.00;;;;;;5092241;28;20043;-72
2023/04/27 00:32:29;;;;;;;7.15;2.78;;;20.90;55.20;;;;;;5091877;28;20443;-71
2023/04/27 00:34:55;;;;;;;6.25;2.65;;;20.90;54.80;;;;;;5092225;28;20039;-72
2023/04/27 00:37:20;;;;;;;6.20;2.60;;;20.90;55.10;;;;;;5092274;28;20074;-72
2023/04/27 00:39:46;;;;;;;5.63;2.45;;;20.90;54.90;;;;;;5092234;28;20431;-72
2023/04/27 00:42:16;;;;;;;6.60;2.50;;;20.90;55.10;;;;;;5092991;28;20488;-72
2023/04/27 00:44:42;;;;;;;6.47;2.83;;;20.90;55.00;;;;;;5092076;28;20032;-73
2023/04/27 00:47:09;;;;;;;6.53;2.55;;;20.90;55.00;;;;;;5093104;28;20028;-72
2023/04/27 00:49:35;;;;;;;5.30;2.42;;;20.90;55.10;;;;;;5091983;28;20028;-72
2023/04/27 00:52:02;;;;;;;5.43;2.63;;;20.80;54.80;;;;;;5092616;28;20024;-72
2023/04/27 00:54:28;;;;;;;5.68;2.75;;;20.90;55.10;;;;;;5092965;28;20024;-72
2023/04/27 00:56:54;;;;;;;6.57;2.70;;;20.80;54.80;;;;;;5093066;28;20389;-72
2023/04/27 00:59:21;;;;;;;6.57;2.30;;;20.80;54.70;;;;;;5093064;28;20032;-72
2023/04/27 01:01:47;;;;;;;5.05;2.40;;;20.80;54.70;;;;;;5091141;28;20035;-71
2023/04/27 01:04:13;;;;;;;5.22;2.70;;;20.80;55.10;;;;;;5091899;28;20032;-71
2023/04/27 01:06:39;;;;;;;5.47;2.60;;;20.80;55.00;;;;;;5091613;28;20035;-72
2023/04/27 01:09:05;;;;;;;8.48;2.63;;;20.80;55.20;;;;;;5091509;28;20027;-72
2023/04/27 01:11:32;;;;;;;6.45;2.67;;;20.90;54.80;;;;;;5074349;28;20031;-72
2023/04/27 01:14:02;;;;;;;5.38;2.42;;;20.80;55.00;;;;;;5091500;28;20024;-71
2023/04/27 01:16:28;;;;;;;6.28;2.50;;;20.90;54.90;;;;;;5091401;28;20028;-71
2023/04/27 01:18:54;;;;;;;6.13;2.40;;;20.90;54.60;;;;;;5092763;28;20024;-72
2023/04/27 01:21:23;;;;;;;4.38;2.20;;;20.90;54.70;;;;;;5090975;28;20314;-72
2023/04/27 01:23:50;;;;;;;10.50;2.67;;;20.80;54.90;;;;;;5091473;28;20032;-71
2023/04/27 01:26:16;;;;;;;5.35;1.83;;;20.90;54.70;;;;;;5091238;28;20081;-72
2023/04/27 01:28:42;;;;;;;7.00;2.42;;;20.90;54.80;;;;;;5092755;28;20473;-72
2023/04/27 01:31:10;;;;;;;3.63;1.83;;;20.80;54.90;;;;;;5091869;28;20049;-72
2023/04/27 01:33:36;;;;;;;4.05;1.98;;;20.80;54.80;;;;;;5091068;28;20401;-72
2023/04/27 01:36:02;;;;;;;6.00;2.40;;;20.80;55.10;;;;;;5091077;28;20031;-72
2023/04/27 01:38:28;;;;;;;4.50;2.20;;;20.80;54.80;;;;;;5091175;28;20032;-72
2023/04/27 01:40:54;;;;;;;6.43;2.42;;;20.80;54.90;;;;;;5090735;28;20036;-72
2023/04/27 01:43:20;;;;;;;5.60;2.00;;;20.80;54.70;;;;;;5090838;28;20108;-72
2023/04/27 01:45:47;;;;;;;5.25;2.10;;;20.80;55.10;;;;;;5092109;28;20468;-72
2023/04/27 01:48:13;;;;;;;4.10;2.13;;;20.80;54.90;;;;;;5090893;28;20028;-72
2023/04/27 01:50:38;;;;;;;4.35;2.30;;;20.80;55.10;;;;;;5090547;28;20153;-71
2023/04/27 01:53:05;;;;;;;6.57;2.50;;;20.80;54.70;;;;;;5090970;28;20393;-72
2023/04/27 01:55:31;;;;;;;4.20;2.30;;;20.80;55.10;;;;;;5091989;28;20059;-71
2023/04/27 01:57:57;;;;;;;6.20;2.50;;;20.80;54.50;;;;;;5090675;28;20035;-71
2023/04/27 02:00:23;;;;;;;4.78;2.30;;;20.80;55.50;;;;;;5090414;28;20473;-72
2023/04/27 02:02:52;;;;;;;7.53;2.40;;;20.80;54.60;;;;;;5090454;28;20028;-72
2023/04/27 02:05:18;;;;;;;4.32;2.45;;;20.80;54.80;;;;;;5091849;28;20546;-71
2023/04/27 02:07:45;;;;;;;7.30;2.45;;;20.70;54.90;;;;;;5090560;28;20508;-72
2023/04/27 02:10:11;;;;;;;4.72;2.25;;;20.80;54.80;;;;;;5090322;28;20024;-72
2023/04/27 02:12:37;;;;;;;4.78;2.35;;;20.80;55.00;;;;;;5091150;28;20019;-72
2023/04/27 02:15:03;;;;;;;5.13;2.47;;;20.80;54.90;;;;;;5090487;28;20052;-72
2023/04/27 02:17:30;;;;;;;7.85;2.45;;;20.80;54.60;;;;;;5090427;28;20131;-72
2023/04/27 02:19:55;;;;;;;4.78;2.30;;;20.80;54.70;;;;;;5090369;28;20042;-72
2023/04/27 02:22:22;;;;;;;4.05;2.10;;;20.80;54.80;;;;;;5089996;28;20031;-72
2023/04/27 02:24:47;;;;;;;4.25;2.20;;;20.80;54.60;;;;;;5090439;28;20428;-72
2023/04/27 02:27:13;;;;;;;4.65;2.10;;;20.80;54.60;;;;;;5090121;28;20024;-71
2023/04/27 02:29:39;;;;;;;5.43;2.00;;;20.70;54.60;;;;;;5090276;28;20480;-72
2023/04/27 02:32:05;;;;;;;4.50;1.92;;;20.80;54.80;;;;;;5091002;28;20031;-72
2023/04/27 02:34:31;;;;;;;5.07;2.22;;;20.70;54.70;;;;;;5089746;28;20385;-72
2023/04/27 02:36:57;;;;;;;6.47;2.10;;;20.70;54.60;;;;;;5090185;28;20028;-72
2023/04/27 02:39:24;;;;;;;4.20;1.95;;;20.70;54.10;;;;;;5090264;28;20035;-72
2023/04/27 02:41:50;;;;;;;2.67;1.88;;;20.70;54.00;;;;;;5072988;28;20401;-72
2023/04/27 02:44:15;;;;;;;3.92;2.03;;;20.70;55.10;;;;;;5090097;28;20028;-72
2023/04/27 02:46:41;;;;;;;6.72;1.98;;;20.70;54.00;;;;;;5090007;28;20023;-72
2023/04/27 02:49:07;;;;;;;3.13;1.80;;;20.70;54.60;;;;;;5090196;28;20031;-72
2023/04/27 02:51:33;;;;;;;6.38;2.15;;;20.70;54.50;;;;;;5089559;28;20166;-72
2023/04/27 02:53:59;;;;;;;5.85;1.73;;;20.70;54.70;;;;;;5091174;28;20024;-72
2023/04/27 02:56:25;;;;;;;5.22;2.00;;;20.70;54.40;;;;;;5091212;28;20077;-72
2023/04/27 02:58:51;;;;;;;4.22;1.85;;;20.70;54.10;;;;;;5089661;28;20389;-72
2023/04/27 03:01:17;;;;;;;5.88;2.00;;;20.70;54.10;;;;;;5090908;28;20069;-72
2023/04/27 03:03:46;;;;;;;4.32;2.00;;;20.70;54.20;;;;;;5106989;28;20028;-72
2023/04/27 03:06:13;;;;;;;3.92;1.85;;;20.70;54.00;;;;;;5089977;28;20032;-72
2023/04/27 03:08:39;;;;;;;4.45;1.85;;;20.70;54.30;;;;;;5073089;28;20085;-72
2023/04/27 03:11:05;;;;;;;3.95;1.90;;;20.70;54.50;;;;;;5089425;28;20032;-72
2023/04/27 03:13:37;;;;;;;5.80;2.17;;;20.70;54.60;;;;;;5089694;28;20028;-72
2023/04/27 03:16:03;;;;;;;5.13;1.73;;;20.70;54.70;;;;;;5089916;28;20020;-72
2023/04/27 03:18:29;;;;;;;5.60;2.05;;;20.70;54.70;;;;;;5090001;28;20082;-71
2023/04/27 03:21:10;;;;;;;3.63;2.03;;;20.70;54.90;;;;;;5089471;28;20114;-72
2023/04/27 03:23:37;;;;;;;4.05;1.90;;;20.70;54.60;;;;;;5089609;28;20103;-72
2023/04/27 03:26:10;;;;;;;4.47;2.20;;;20.70;54.60;;;;;;5089868;28;20024;-72
2023/04/27 03:28:36;;;;;;;4.80;2.17;;;20.60;54.00;;;;;;5089935;28;20419;-72
2023/04/27 03:31:07;;;;;;;5.95;2.20;;;20.70;54.70;;;;;;5089355;28;20050;-72
2023/04/27 03:33:33;;;;;;;3.40;1.88;;;20.70;54.40;;;;;;5089765;28;20476;-72
2023/04/27 03:35:59;;;;;;;9.30;1.95;;;20.70;54.00;;;;;;5072676;28;20024;-72
2023/04/27 03:38:26;;;;;;;5.72;1.65;;;20.60;54.00;;;;;;5090836;28;20024;-72
2023/04/27 03:40:52;;;;;;;10.73;2.42;;;20.70;54.40;;;;;;5089397;28;20064;-72
2023/04/27 03:43:19;;;;;;;4.90;2.00;;;20.70;54.70;;;;;;5089482;28;20047;-72
2023/04/27 03:45:45;;;;;;;4.57;2.20;;;20.60;54.50;;;;;;5073022;28;20515;-72
2023/04/27 03:48:12;;;;;;;4.72;1.70;;;20.70;54.60;;;;;;5092974;28;20031;-72
2023/04/27 03:50:39;;;;;;;7.82;1.77;;;20.60;54.60;;;;;;5092788;28;20024;-72
2023/04/27 03:53:05;;;;;;;2.65;1.60;;;20.60;54.70;;;;;;5076285;28;20381;-72
2023/04/27 03:55:31;;;;;;;11.15;1.90;;;20.60;54.60;;;;;;5076117;28;20477;-72
2023/04/27 03:57:57;;;;;;;4.28;2.00;;;20.60;54.90;;;;;;5092890;28;20163;-72
2023/04/27 04:00:23;;;;;;;3.92;1.77;;;20.70;54.40;;;;;;5092625;28;20134;-72
2023/04/27 04:02:50;;;;;;;6.88;2.08;;;20.70;55.00;;;;;;5094012;28;20067;-72
2023/04/27 04:05:17;;;;;;;3.97;1.88;;;20.70;54.80;;;;;;5075961;28;20496;-72
2023/04/27 04:07:43;;;;;;;4.75;1.85;;;20.70;54.20;;;;;;5092786;28;20031;-72
2023/04/27 04:10:10;;;;;;;5.43;1.88;;;20.70;54.70;;;;;;5076175;28;20032;-72
2023/04/27 04:12:36;;;;;;;3.97;1.90;;;20.70;54.40;;;;;;5075573;28;20064;-72
2023/04/27 04:15:03;;;;;;;3.85;1.90;;;20.70;54.90;;;;;;5075753;28;20058;-72
2023/04/27 04:17:32;;;;;;;4.35;1.80;;;20.70;54.50;;;;;;5092591;28;20020;-72
2023/04/27 04:19:59;;;;;;;3.63;1.85;;;20.70;54.10;;;;;;5092726;28;20397;-72
2023/04/27 04:22:25;;;;;;;4.57;2.03;;;20.70;55.00;;;;;;5092207;28;20460;-72
2023/04/27 04:24:51;;;;;;;4.50;2.15;;;20.70;54.20;;;;;;5075799;28;20052;-72
2023/04/27 04:27:17;;;;;;;5.57;2.15;;;20.70;54.20;;;;;;5092422;28;20481;-72
2023/04/27 04:29:43;;;;;;;4.15;2.17;;;20.70;54.40;;;;;;5092485;28;20481;-72
2023/04/27 04:32:08;;;;;;;8.45;2.40;;;20.70;53.70;;;;;;5091962;28;20036;-72
2023/04/27 04:34:36;;;;;;;5.78;2.00;;;20.70;54.10;;;;;;5075596;28;20028;-72
2023/04/27 04:37:03;;;;;;;5.57;2.30;;;20.70;54.20;;;;;;5075609;28;20055;-72
2023/04/27 04:39:32;;;;;;;6.50;2.10;;;20.70;53.70;;;;;;5109149;28;20023;-72
2023/04/27 04:41:59;;;;;;;5.55;2.08;;;20.70;53.70;;;;;;5075142;28;20028;-71
2023/04/27 04:44:27;;;;;;;6.57;2.22;;;20.70;54.20;;;;;;5092063;28;20500;-71
2023/04/27 04:46:54;;;;;;;3.42;1.80;;;20.70;54.10;;;;;;5092028;28;20024;-72
2023/04/27 04:49:19;;;;;;;4.95;2.10;;;20.70;53.90;;;;;;5108891;28;20150;-72
2023/04/27 04:51:46;;;;;;;6.13;2.38;;;20.70;54.40;;;;;;5091595;28;20103;-72
2023/04/27 04:54:11;;;;;;;5.63;2.30;;;20.70;53.80;;;;;;5091791;28;20095;-71
2023/04/27 04:56:37;;;;;;;5.63;2.10;;;20.70;53.70;;;;;;5075099;28;20396;-71
2023/04/27 04:59:03;;;;;;;4.35;2.20;;;20.70;54.70;;;;;;5108283;28;20058;-72
2023/04/27 05:01:31;;;;;;;5.43;2.17;;;20.70;53.90;;;;;;5092537;28;20028;-72
2023/04/27 05:03:57;;;;;;;5.10;2.03;;;20.70;53.40;;;;;;5093001;28;20034;-72
2023/04/27 05:06:22;;;;;;;6.43;2.17;;;20.70;54.10;;;;;;5093077;28;20431;-72
2023/04/27 05:08:48;;;;;;;3.92;2.17;;;20.80;54.10;;;;;;5092787;28;20575;-72
2023/04/27 05:11:14;;;;;;;4.88;2.22;;;20.80;53.80;;;;;;5092392;28;20086;-73
2023/04/27 05:13:40;;;;;;;4.00;2.05;;;20.80;54.00;;;;;;5092694;28;20028;-72
2023/04/27 05:16:06;;;;;;;5.07;2.30;;;20.80;54.40;;;;;;5092576;28;20019;-72
2023/04/27 05:18:33;;;;;;;4.57;2.38;;;20.80;53.90;;;;;;5091459;28;20024;-72
2023/04/27 05:20:59;;;;;;;7.57;2.70;;;20.80;53.80;;;;;;5092083;28;20020;-72
2023/04/27 05:23:25;;;;;;;6.45;2.75;;;20.80;53.80;;;;;;5091287;28;20016;-71
2023/04/27 05:25:51;;;;;;;6.15;2.75;;;20.80;53.70;;;;;;5092440;28;20111;-72
2023/04/27 05:28:17;;;;;;;7.43;2.80;;;20.70;54.10;;;;;;5092497;28;20027;-72
2023/04/27 05:30:42;;;;;;;6.20;2.67;;;20.80;53.70;;;;;;5091893;28;20024;-72
2023/04/27 05:33:08;;;;;;;7.75;2.67;;;20.70;53.50;;;;;;5092423;28;20020;-71
2023/04/27 05:35:34;;;;;;;6.05;2.60;;;20.80;54.60;;;;;;5092314;28;20059;-71
2023/04/27 05:38:01;;;;;;;5.05;2.50;;;20.70;53.60;;;;;;5091099;28;20024;-72
2023/04/27 05:40:27;;;;;;;7.82;3.00;;;20.80;53.50;;;;;;5090760;28;20314;-72
2023/04/27 05:42:53;;;;;;;6.85;2.95;;;20.80;54.00;;;;;;5074155;28;20119;-72
2023/04/27 05:45:19;;;;;;;6.65;2.65;;;20.80;53.70;;;;;;5092062;28;20559;-72
2023/04/27 05:47:45;;;;;;;4.70;2.35;;;20.80;54.00;;;;;;5090890;28;20028;-71
2023/04/27 05:50:11;;;;;;;8.57;2.75;;;20.80;53.80;;;;;;5090595;28;20165;-71
2023/04/27 05:52:37;;;;;;;10.10;3.22;;;20.70;53.40;;;;;;5073714;28;20036;-72
2023/04/27 05:55:04;;;;;;;5.60;2.58;;;20.80;54.40;;;;;;5091928;28;20042;-72
2023/04/27 05:57:30;;;;;;;11.63;2.85;;;20.80;53.30;;;;;;5091989;28;20074;-72
2023/04/27 05:59:56;;;;;;;6.38;2.75;;;20.70;54.20;;;;;;5091816;28;20074;-72
2023/04/27 06:02:21;;;;;;;6.18;2.80;;;20.80;54.10;;;;;;5091467;28;20083;-72
2023/04/27 06:04:47;;;;;;;5.75;2.63;;;20.80;53.60;;;;;;5090692;28;20040;-71
2023/04/27 06:07:14;;;;;;;6.40;2.42;;;20.80;53.70;;;;;;5092113;28;20027;-72
2023/04/27 06:09:41;;;;;;;7.88;2.38;;;20.80;53.60;;;;;;5090835;28;20028;-72
2023/04/27 06:12:07;;;;;;;8.15;2.80;;;20.80;53.00;;;;;;5091169;28;20036;-72
2023/04/27 06:14:36;;;;;;;8.77;2.40;;;20.80;53.90;;;;;;5091731;28;20078;-72
2023/04/27 06:17:04;;;;;;;8.50;2.50;;;20.80;53.80;;;;;;5091990;28;20470;-72
2023/04/27 06:19:30;;;;;;;7.30;2.38;;;20.80;54.30;;;;;;5091519;28;20535;-72
2023/04/27 06:21:56;;;;;;;9.38;2.67;;;20.80;53.00;;;;;;5090015;28;20028;-72
2023/04/27 06:24:22;;;;;;;7.03;3.22;;;20.90;53.10;;;;;;5091671;28;20074;-72
2023/04/27 06:26:51;;;;;;;7.97;2.67;;;20.80;53.10;;;;;;5090169;28;20107;-72
2023/04/27 06:29:16;;;;;;;11.55;3.05;;;20.90;53.20;;;;;;5091572;28;20107;-75
2023/04/27 06:31:42;;;;;;;8.45;2.70;;;20.80;51.00;;;;;;5090814;28;20194;-75
2023/04/27 06:34:08;;;;;;;9.02;2.25;;;20.60;49.10;;;;;;5090290;28;20024;-74
2023/04/27 06:36:34;;;;;;;14.10;2.60;;;20.50;43.60;;;;;;5091564;28;20558;-74
2023/04/27 06:39:00;;;;;;;8.73;2.50;;;20.40;44.10;;;;;;5090354;28;20389;-73
2023/04/27 06:41:26;;;;;;;8.65;2.17;;;20.20;42.60;;;;;;5090888;28;20111;-74
2023/04/27 06:43:52;;;;;;;9.80;2.88;;;20.10;40.80;;;;;;5091309;28;20099;-73
2023/04/27 06:46:19;;;;;;;11.10;2.17;;;20.10;42.50;;;;;;5091294;28;20537;-73
2023/04/27 06:48:45;;;;;;;11.35;2.47;;;20.10;39.90;;;;;;5091159;28;20036;-72
2023/04/27 06:51:11;;;;;;;16.92;3.58;;;20.20;43.60;;;;;;5090075;28;20491;-72
2023/04/27 06:53:38;;;;;;;23.27;3.22;;;20.40;42.60;;;;;;5090989;28;20084;-72
2023/04/27 17:36:38;;;;;;;8.60;3.65;;;20.50;50.60;;;;;;5122287;27;20817;-72
2023/04/27 17:39:04;;;;;;;5.75;3.42;;;20.70;51.60;;;;;;5088605;28;20050;-73
2023/04/27 17:41:31;;;;;;;16.05;3.58;;;20.80;51.40;;;;;;5122731;22;20040;-72
2023/04/27 17:43:57;;;;;;;12.27;3.67;;;20.80;52.10;;;;;;5068110;28;20043;-71
2023/04/27 17:46:24;;;;;;;11.05;4.78;;;20.90;51.90;;;;;;5068005;28;20113;-73
2023/04/27 17:48:50;;;;;;;18.00;3.28;;;20.90;52.80;;;;;;5068223;28;20039;-72
2023/04/27 17:51:16;;;;;;;10.60;3.92;;;20.90;51.00;;;;;;5035553;28;20501;-72
2023/04/27 17:53:42;;;;;;;19.98;4.32;;;21.00;53.90;;;;;;5048313;28;20021;-72
2023/04/27 17:56:08;;;;;;;13.32;3.95;;;21.00;55.10;;;;;;5046756;28;20037;-72
2023/04/27 17:58:34;;;;;;;16.60;3.50;;;21.00;56.10;;;;;;5030320;28;20113;-73
2023/04/27 18:01:00;;;;;;;14.90;3.53;;;21.00;53.10;;;;;;5047956;28;20029;-73
2023/04/27 18:03:28;;;;;;;17.60;4.15;;;21.00;50.90;;;;;;5048107;28;20060;-73
2023/04/27 18:05:56;;;;;;;20.88;4.40;;;21.00;55.10;;;;;;5047762;28;20478;-73
2023/04/27 18:08:22;;;;;;;12.68;3.72;;;21.00;54.90;;;;;;5047803;28;20063;-72
2023/04/27 18:10:48;;;;;;;16.67;4.07;;;21.00;54.20;;;;;;5047803;28;20057;-73
2023/04/27 18:13:14;;;;;;;15.85;4.55;;;21.00;52.80;;;;;;5046438;28;20037;-72
2023/04/27 18:15:40;;;;;;;8.18;3.65;;;21.00;53.50;;;;;;5047577;28;20026;-72
2023/04/27 18:18:05;;;;;;;12.15;3.80;;;21.00;52.40;;;;;;5046039;28;20052;-72
2023/04/27 18:20:31;;;;;;;18.35;4.43;;;20.90;52.10;;;;;;5047067;28;20090;-72
2023/04/27 18:22:57;;;;;;;10.50;3.33;;;20.90;53.30;;;;;;5046338;28;20033;-72
2023/04/27 18:25:23;;;;;;;12.20;3.90;;;20.90;52.50;;;;;;5047537;28;20025;-71
2023/04/27 18:27:54;;;;;;;8.80;3.67;;;20.90;52.90;;;;;;5062642;28;20047;-72
2023/04/27 18:30:20;;;;;;;15.48;4.00;;;20.90;53.10;;;;;;5047003;28;20036;-72
2023/04/27 18:32:45;;;;;;;11.38;3.80;;;20.90;53.30;;;;;;5046518;28;20017;-72
2023/04/27 18:35:11;;;;;;;14.43;3.75;;;20.90;53.90;;;;;;5046722;28;20556;-72
2023/04/27 18:37:37;;;;;;;14.20;4.40;;;20.90;53.70;;;;;;5030439;28;20026;-72
2023/04/27 18:40:04;;;;;;;12.13;5.00;;;20.90;52.80;;;;;;5032037;28;20041;-72
2023/04/27 18:42:30;;;;;;;14.45;4.15;;;20.90;52.60;;;;;;5033689;28;20040;-73
2023/04/27 18:44:58;;;;;;;9.70;4.22;;;20.90;53.10;;;;;;5033546;28;20025;-72
2023/04/27 18:47:24;;;;;;;18.15;4.55;;;20.90;53.10;;;;;;5033275;28;20025;-71
2023/04/27 18:49:50;;;;;;;12.85;3.70;;;20.90;52.90;;;;;;5033582;28;20449;-73
2023/04/27 18:52:16;;;;;;;9.88;3.70;;;20.90;52.90;;;;;;5032224;28;20618;-72
2023/04/27 18:54:41;;;;;;;12.88;4.15;;;20.90;52.80;;;;;;5033539;28;20048;-73
2023/04/27 18:57:07;;;;;;;8.68;3.70;;;20.80;52.60;;;;;;5032064;28;20056;-71
2023/04/27 18:59:33;;;;;;;11.55;3.95;;;20.80;52.60;;;;;;5033584;28;20382;-72
2023/04/27 19:01:59;;;;;;;10.98;4.50;;;20.80;52.50;;;;;;5033755;28;20065;-72
2023/04/27 19:04:25;;;;;;;12.00;4.13;;;20.80;52.40;;;;;;5033628;28;20025;-72
2023/04/27 19:06:51;;;;;;;11.23;3.85;;;20.80;52.40;;;;;;5031913;28;20537;-72
2023/04/27 19:09:18;;;;;;;7.30;3.70;;;20.80;52.30;;;;;;5033438;28;20021;-72
2023/04/27 19:11:44;;;;;;;10.98;3.80;;;20.80;52.30;;;;;;5033314;28;20057;-71
2023/04/27 19:14:09;;;;;;;10.93;3.80;;;20.80;52.20;;;;;;5033143;28;20474;-73
2023/04/27 19:16:36;;;;;;;14.07;4.72;;;20.80;52.10;;;;;;5032840;28;20066;-72
2023/04/27 19:19:03;;;;;;;10.32;4.43;;;20.80;52.00;;;;;;5031895;28;20036;-72
2023/04/27 19:21:28;;;;;;;8.20;3.50;;;20.80;51.80;;;;;;5032973;28;20033;-72
2023/04/27 19:23:54;;;;;;;9.43;4.22;;;20.80;51.80;;;;;;5033023;28;20029;-73
2023/04/27 19:26:20;;;;;;;9.13;4.00;;;20.80;51.70;;;;;;5032657;28;20108;-72
2023/04/27 19:28:46;;;;;;;7.65;3.63;;;20.80;51.70;;;;;;5032876;28;20030;-72
2023/04/27 19:31:13;;;;;;;9.13;4.00;;;20.80;51.60;;;;;;5032743;28;20030;-73
2023/04/27 19:33:39;;;;;;;7.03;3.47;;;20.80;51.50;;;;;;5032809;28;20025;-72
2023/04/27 19:36:05;;;;;;;10.27;3.80;;;20.80;51.60;;;;;;5032429;28;20414;-72
2023/04/27 19:38:31;;;;;;;7.95;3.88;;;20.80;51.50;;;;;;5032530;28;20048;-72
2023/04/27 19:40:56;;;;;;;8.10;4.00;;;20.80;51.50;;;;;;5032484;28;20395;-72
2023/04/27 19:43:22;;;;;;;8.23;3.72;;;20.80;51.30;;;;;;5032650;28;20431;-72
2023/04/27 19:45:48;;;;;;;10.82;4.07;;;20.80;51.40;;;;;;5032501;28;20029;-72
2023/04/27 19:48:14;;;;;;;5.75;3.35;;;20.80;51.40;;;;;;5013801;28;20109;-73
2023/04/27 19:50:40;;;;;;;9.10;4.00;;;20.80;51.50;;;;;;5032478;28;20030;-72
2023/04/27 19:53:06;;;;;;;7.57;3.60;;;20.80;51.40;;;;;;5047639;28;20486;-72
2023/04/27 19:55:32;;;;;;;8.30;3.97;;;20.80;51.30;;;;;;5032308;28;20029;-72
2023/04/27 19:57:58;;;;;;;7.85;3.80;;;20.80;51.30;;;;;;5030700;28;20053;-72
2023/04/27 20:00:23;;;;;;;7.95;4.03;;;20.70;51.30;;;;;;5032151;28;20037;-73
2023/04/27 20:02:52;;;;;;;6.63;3.63;;;20.80;51.00;;;;;;5032135;28;20029;-72
2023/04/27 20:05:18;;;;;;;10.90;4.68;;;20.80;51.40;;;;;;5032170;28;20036;-72
2023/04/27 20:07:44;;;;;;;8.20;4.50;;;20.70;51.20;;;;;;5030439;28;20505;-72
2023/04/27 20:10:10;;;;;;;7.05;3.88;;;20.70;51.10;;;;;;5032023;28;20049;-72
2023/04/27 20:12:36;;;;;;;8.52;3.90;;;20.70;51.10;;;;;;5032071;28;20029;-72
2023/04/27 20:15:02;;;;;;;8.23;3.70;;;20.80;51.20;;;;;;5032006;28;20498;-73
2023/04/27 20:17:28;;;;;;;8.70;4.13;;;20.70;51.80;;;;;;5032015;28;20491;-73
2023/04/27 20:19:55;;;;;;;9.23;4.38;;;20.70;51.10;;;;;;5032182;28;20478;-73
2023/04/27 20:22:23;;;;;;;6.70;3.97;;;20.70;51.10;;;;;;5031120;28;20029;-73
2023/04/27 20:24:51;;;;;;;8.02;3.90;;;20.70;50.80;;;;;;5031065;28;20033;-73
2023/04/27 20:27:17;;;;;;;8.38;3.90;;;20.70;50.80;;;;;;5030834;28;20036;-73
2023/04/27 20:29:45;;;;;;;7.80;4.00;;;20.70;51.00;;;;;;5031974;28;20159;-72
2023/04/27 20:32:11;;;;;;;9.20;4.38;;;20.70;50.80;;;;;;5032130;28;20025;-73
2023/04/27 20:34:37;;;;;;;8.20;4.18;;;20.80;50.90;;;;;;5031928;28;20395;-73
2023/04/27 20:37:03;;;;;;;8.48;3.90;;;20.80;51.10;;;;;;5031617;28;20040;-72
2023/04/27 20:39:29;;;;;;;8.90;3.92;;;20.70;50.70;;;;;;5032024;28;20035;-72
2023/04/27 20:41:55;;;;;;;10.18;4.35;;;20.70;50.80;;;;;;5031837;28;20041;-73
2023/04/27 20:44:22;;;;;;;7.75;3.95;;;20.70;50.90;;;;;;5030805;28;20083;-73
2023/04/27 20:46:48;;;;;;;8.55;4.68;;;20.70;50.90;;;;;;5031608;28;20025;-73
2023/04/27 20:49:13;;;;;;;7.82;4.28;;;20.70;50.70;;;;;;5031719;28;20040;-73
2023/04/27 20:51:39;;;;;;;7.63;4.25;;;20.70;50.40;;;;;;5031682;28;20025;-73
2023/04/27 20:54:05;;;;;;;7.78;4.13;;;20.70;50.80;;;;;;5031686;28;20021;-73
2023/04/27 20:56:31;;;;;;;9.40;4.03;;;20.70;50.60;;;;;;5031465;28;20084;-73
2023/04/27 20:58:58;;;;;;;10.90;4.50;;;20.70;50.80;;;;;;5031385;28;20086;-72
2023/04/27 21:01:24;;;;;;;8.27;3.92;;;20.70;50.60;;;;;;5031598;28;20084;-73
2023/04/27 21:03:51;;;;;;;6.13;3.65;;;20.70;50.90;;;;;;5031561;28;20029;-72
2023/04/27 21:06:17;;;;;;;7.38;4.00;;;20.60;50.70;;;;;;5031161;28;20434;-73
2023/04/27 21:08:42;;;;;;;6.72;3.92;;;20.60;50.80;;;;;;5031496;28;20025;-72
2023/04/27 21:11:08;;;;;;;8.95;4.05;;;20.60;51.00;;;;;;5031505;28;20021;-70
2023/04/27 21:13:34;;;;;;;7.85;4.25;;;20.70;50.70;;;;;;5031441;28;20060;-72
2023/04/27 21:16:00;;;;;;;10.15;4.38;;;20.60;50.40;;;;;;5031218;28;20022;-73
2023/04/27 21:18:26;;;;;;;7.00;3.95;;;20.70;50.40;;;;;;5031252;28;20061;-73
2023/04/27 21:20:52;;;;;;;8.02;3.97;;;20.60;50.70;;;;;;5031216;28;20474;-73
2023/04/27 21:23:18;;;;;;;7.82;3.88;;;20.60;50.40;;;;;;5031351;28;20036;-73
2023/04/27 21:25:45;;;;;;;7.07;3.90;;;20.60;50.80;;;;;;5031647;28;20028;-72
2023/04/27 21:28:11;;;;;;;8.18;3.95;;;20.70;50.80;;;;;;5031071;28;20159;-73
2023/04/27 21:30:38;;;;;;;9.35;4.28;;;20.70;50.40;;;;;;5031198;28;20030;-73
2023/04/27 21:33:04;;;;;;;7.43;3.60;;;20.60;49.80;;;;;;5031117;28;20036;-72
2023/04/27 21:35:30;;;;;;;8.93;4.15;;;20.70;50.30;;;;;;5031247;28;20029;-73
2023/04/27 21:37:56;;;;;;;6.75;3.85;;;20.70;50.60;;;;;;5029629;28;20100;-73
2023/04/27 21:40:22;;;;;;;7.13;3.80;;;20.70;50.50;;;;;;5029712;28;20029;-73
2023/04/27 21:42:54;;;;;;;7.80;4.03;;;20.70;50.70;;;;;;5031213;28;20039;-73
2023/04/27 21:45:20;;;;;;;7.55;4.07;;;20.60;50.40;;;;;;5029822;28;20088;-71
2023/04/27 21:47:46;;;;;;;8.93;4.18;;;20.70;50.90;;;;;;5030914;28;20025;-70
2023/04/27 21:50:12;;;;;;;7.43;3.80;;;20.60;50.50;;;;;;5030991;28;20036;-70
2023/04/27 21:52:38;;;;;;;7.70;4.00;;;20.60;50.50;;;;;;5031046;28;20041;-72
2023/04/27 21:55:04;;;;;;;9.65;3.88;;;20.60;50.30;;;;;;5031068;28;20490;-72
2023/04/27 21:57:31;;;;;;;7.55;3.80;;;20.60;50.80;;;;;;5030671;28;20045;-71
2023/04/27 21:59:57;;;;;;;7.63;4.13;;;20.60;50.50;;;;;;5030906;28;20080;-73
2023/04/27 22:02:23;;;;;;;7.88;3.90;;;20.60;50.30;;;;;;5031044;28;20083;-73
2023/04/27 22:04:50;;;;;;;6.05;3.88;;;20.60;50.80;;;;;;5030677;28;20049;-72
2023/04/27 22:07:17;;;;;;;7.63;4.18;;;20.60;50.50;;;;;;5030794;28;20036;-73
2023/04/27 22:09:43;;;;;;;8.45;4.68;;;20.60;50.80;;;;;;5030902;28;20108;-72
2023/04/27 22:12:09;;;;;;;12.00;4.75;;;20.60;50.50;;;;;;5039700;28;20498;-73
2023/04/27 22:14:35;;;;;;;15.52;4.50;;;20.60;50.40;;;;;;5041354;28;20021;-72
2023/04/27 22:17:01;;;;;;;14.48;4.50;;;20.60;50.80;;;;;;5032700;28;20029;-73
2023/04/27 22:19:27;;;;;;;18.05;4.85;;;20.60;50.40;;;;;;5034523;28;20029;-73
2023/04/27 22:21:53;;;;;;;11.05;4.22;;;20.70;50.50;;;;;;5033165;28;20040;-73
2023/04/27 22:24:19;;;;;;;10.25;3.78;;;20.70;51.70;;;;;;5047691;28;20044;-73
2023/04/27 22:26:47;;;;;;;10.48;4.15;;;20.70;51.00;;;;;;5050269;28;20390;-73
2023/04/27 22:29:13;;;;;;;9.95;4.22;;;20.70;51.00;;;;;;5051445;28;20029;-74
2023/04/27 22:31:40;;;;;;;8.30;4.32;;;20.70;50.80;;;;;;5045310;28;20092;-73
2023/04/27 22:34:06;;;;;;;11.63;4.72;;;20.70;50.70;;;;;;5035874;28;20034;-72
2023/04/27 22:36:32;;;;;;;18.88;4.45;;;20.70;50.80;;;;;;5040628;28;20433;-73
2023/04/27 22:38:58;;;;;;;14.02;4.10;;;20.70;50.80;;;;;;5031994;28;20025;-73
2023/04/27 22:41:24;;;;;;;7.20;3.80;;;20.70;51.40;;;;;;5033490;28;20130;-73
2023/04/27 22:43:50;;;;;;;7.57;3.83;;;20.70;51.10;;;;;;5033452;28;20295;-73
2023/04/27 22:46:16;;;;;;;9.93;4.50;;;20.70;51.00;;;;;;5039914;28;20025;-74
2023/04/27 22:48:42;;;;;;;13.77;4.20;;;20.70;51.20;;;;;;5033131;28;20014;-72
2023/04/27 22:51:09;;;;;;;11.73;4.10;;;20.70;51.00;;;;;;5033810;28;20025;-74
2023/04/27 22:53:35;;;;;;;6.50;3.72;;;20.70;51.10;;;;;;5039720;28;20052;-73
2023/04/27 22:56:01;;;;;;;8.65;4.28;;;20.70;51.00;;;;;;5038591;28;20021;-72
2023/04/27 22:58:27;;;;;;;8.48;4.03;;;20.70;51.00;;;;;;5037817;28;20479;-73
2023/04/27 23:00:53;;;;;;;9.73;3.90;;;20.70;51.20;;;;;;5050231;28;20033;-74
2023/04/27 23:03:19;;;;;;;9.00;4.20;;;20.60;51.20;;;;;;5050932;28;20589;-73
2023/04/27 23:05:44;;;;;;;7.18;3.70;;;20.70;51.20;;;;;;5050812;28;20496;-73
2023/04/27 23:08:12;;;;;;;6.68;3.63;;;20.70;51.30;;;;;;5039906;28;20030;-73
2023/04/27 23:10:38;;;;;;;8.32;3.67;;;20.70;51.20;;;;;;5040894;28;20036;-72
2023/04/27 23:13:06;;;;;;;13.18;4.32;;;20.70;51.10;;;;;;5032529;28;20040;-73
2023/04/27 23:15:31;;;;;;;7.00;4.00;;;20.70;51.10;;;;;;5039902;28;20029;-74
2023/04/27 23:17:57;;;;;;;8.45;4.30;;;20.60;51.20;;;;;;5032518;28;20376;-73
2023/04/27 23:20:23;;;;;;;8.30;3.67;;;20.70;51.30;;;;;;5045998;28;20040;-73